Time;durP1;ratioP1;P1;durP2;ratioP2;P2;SDS_P1;SDS_P2;PMS_P1;PMS_P2;Temp;Humidity;BMP_temperature;BMP_pressure;BME280_temperature;BME280_humidity;BME280_pressure;Samples;Min_cycle;Max_cycle;Signal;HPM_P1;HPM_P2
2021/01/05 00:01:36;;;;;;;10.43;6.00;;;;;;;2.65;100.00;97519.34;5075082;28;20602;-77
2021/01/05 00:04:03;;;;;;;13.40;6.03;;;;;;;2.63;100.00;97518.69;5075040;28;20216;-76
2021/01/05 00:06:30;;;;;;;11.80;6.43;;;;;;;2.63;100.00;97523.13;5071291;28;20193;-76
2021/01/05 00:08:57;;;;;;;13.43;6.13;;;;;;;2.81;100.00;97511.47;5073484;28;20634;-76
2021/01/05 00:11:24;;;;;;;12.73;6.60;;;;;;;2.80;100.00;97520.31;5067945;28;20201;-77
2021/01/05 00:13:51;;;;;;;15.73;6.70;;;;;;;2.61;100.00;97518.03;5070936;28;20251;-76
2021/01/05 00:16:18;;;;;;;13.73;6.67;;;;;;;2.64;100.00;97520.31;5073695;28;20204;-78
2021/01/05 00:18:45;;;;;;;15.03;7.13;;;;;;;2.74;100.00;97515.72;5070702;28;20278;-77
2021/01/05 00:21:12;;;;;;;14.90;6.90;;;;;;;2.56;100.00;97522.13;5073184;28;20275;-77
2021/01/05 00:23:39;;;;;;;11.93;6.63;;;;;;;2.47;100.00;97520.47;5069351;28;20234;-77
2021/01/05 00:26:05;;;;;;;14.73;7.53;;;;;;;2.58;100.00;97517.50;5073055;28;20201;-77
2021/01/05 00:28:32;;;;;;;16.40;7.47;;;;;;;2.44;100.00;97533.97;5071766;28;20193;-77
2021/01/05 00:30:59;;;;;;;16.33;7.20;;;;;;;2.50;100.00;97522.78;5073264;28;20578;-78
2021/01/05 00:33:27;;;;;;;16.63;7.43;;;;;;;2.58;100.00;97525.41;5072821;28;20217;-77
2021/01/05 00:35:53;;;;;;;16.90;8.27;;;;;;;2.47;100.00;97531.84;5078116;28;20205;-78
2021/01/05 00:38:20;;;;;;;15.47;7.37;;;;;;;2.47;100.00;97520.47;5078967;28;20669;-77
2021/01/05 00:40:47;;;;;;;16.90;7.77;;;;;;;2.53;100.00;97518.03;5070079;28;20193;-77
2021/01/05 00:43:14;;;;;;;15.50;6.90;;;;;;;2.59;100.00;97521.81;5070279;28;20225;-77
2021/01/05 00:45:41;;;;;;;18.17;7.30;;;;;;;2.57;100.00;97531.69;5074011;28;20197;-77
2021/01/05 00:48:08;;;;;;;16.07;7.43;;;;;;;2.36;100.00;97537.41;5071847;28;20287;-77
2021/01/05 00:50:36;;;;;;;18.80;7.43;;;;;;;2.77;100.00;97533.84;5072992;28;20211;-78
2021/01/05 00:53:03;;;;;;;19.63;7.83;;;;;;;2.70;100.00;97532.84;5072795;28;20221;-77
2021/01/05 00:55:29;;;;;;;16.17;7.57;;;;;;;2.55;100.00;97531.84;5072437;28;20220;-79
2021/01/05 00:57:56;;;;;;;15.33;8.10;;;;;;;2.45;100.00;97536.44;5072590;28;20200;-77
2021/01/05 01:00:25;;;;;;;15.50;7.57;;;;;;;2.54;100.00;97532.03;5072593;28;20211;-77
2021/01/05 01:02:53;;;;;;;18.03;7.70;;;;;;;2.71;100.00;97534.50;5072061;28;20194;-77
2021/01/05 01:05:21;;;;;;;17.13;8.17;;;;;;;2.36;100.00;97541.84;5073012;28;20224;-76
2021/01/05 01:07:49;;;;;;;17.63;7.47;;;;;;;2.39;100.00;97542.34;5072796;28;20198;-76
2021/01/05 01:10:16;;;;;;;16.93;7.97;;;;;;;2.47;100.00;97547.63;5072429;28;20657;-75
2021/01/05 01:12:43;;;;;;;16.10;8.57;;;;;;;2.82;100.00;97544.72;5071752;28;20719;-77
2021/01/05 01:15:13;;;;;;;15.13;8.33;;;;;;;2.76;100.00;97537.47;5072739;28;20235;-78
2021/01/05 01:17:40;;;;;;;20.33;7.90;;;;;;;2.83;100.00;97537.63;5080899;28;20204;-77
2021/01/05 01:20:08;;;;;;;18.20;8.23;;;;;;;2.63;100.00;97539.75;5068611;28;20218;-79
2021/01/05 01:22:34;;;;;;;17.70;7.90;;;;;;;2.48;100.00;97533.47;5072158;28;20541;-79
2021/01/05 01:25:03;;;;;;;17.07;7.70;;;;;;;2.54;100.00;97539.91;5072254;28;20220;-77
2021/01/05 01:27:31;;;;;;;16.23;7.30;;;;;;;2.75;100.00;97535.00;5072108;28;20193;-77
2021/01/05 01:29:58;;;;;;;18.87;9.30;;;;;;;2.49;100.00;97537.75;5072134;28;20623;-77
2021/01/05 01:32:24;;;;;;;17.67;9.00;;;;;;;2.56;100.00;97536.13;5075791;28;20835;-77
2021/01/05 01:34:51;;;;;;;17.17;8.33;;;;;;;2.35;100.00;97538.38;5071720;28;20724;-77
2021/01/05 01:37:19;;;;;;;16.97;8.53;;;;;;;2.37;100.00;97538.22;5065854;28;20216;-75
2021/01/05 01:39:46;;;;;;;15.63;7.33;;;;;;;2.68;100.00;97534.81;5071604;28;20215;-75
2021/01/05 01:42:16;;;;;;;20.93;8.47;;;;;;;2.62;100.00;97535.47;5068921;28;20209;-77
2021/01/05 01:44:44;;;;;;;21.10;8.57;;;;;;;2.47;100.00;97542.38;5068928;28;20229;-75
2021/01/05 01:47:14;;;;;;;18.03;8.40;;;;;;;2.50;100.00;97539.41;5065602;28;20189;-77
2021/01/05 01:49:44;;;;;;;18.93;8.50;;;;;;;2.58;100.00;97528.03;5072971;28;20197;-77
2021/01/05 01:52:11;;;;;;;17.27;7.63;;;;;;;2.51;100.00;97540.22;5071820;28;20284;-77
2021/01/05 01:55:08;;;;;;;19.97;7.70;;;;;;;2.56;100.00;97537.94;5068048;28;20221;-76
2021/01/05 01:57:46;;;;;;;20.67;8.33;;;;;;;2.61;100.00;97530.38;5071702;28;20197;-77
2021/01/05 02:00:22;;;;;;;18.17;8.20;;;;;;;2.69;100.00;97541.72;5068566;28;20185;-77
2021/01/05 02:03:08;;;;;;;15.57;7.33;;;;;;;2.66;100.00;97536.81;5071769;28;20196;-75
2021/01/05 02:05:39;;;;;;;21.80;8.87;;;;;;;2.72;100.00;97544.06;5071386;28;20195;-77
2021/01/05 02:08:14;;;;;;;17.40;8.13;;;;;;;2.88;100.00;97533.50;5061488;28;20201;-76
2021/01/05 02:10:50;;;;;;;17.20;8.07;;;;;;;3.06;100.00;97533.34;5067130;28;20201;-75
2021/01/05 02:13:35;;;;;;;17.60;8.80;;;;;;;2.48;100.00;97544.00;5069208;28;20254;-78
2021/01/05 02:16:16;;;;;;;14.03;7.57;;;;;;;2.67;100.00;97538.44;5071731;28;20196;-75
2021/01/05 02:18:46;;;;;;;18.00;8.47;;;;;;;2.77;100.00;97530.38;5068612;28;20193;-75
2021/01/05 02:21:23;;;;;;;17.90;8.17;;;;;;;2.57;100.00;97523.78;5064153;28;20655;-75
2021/01/05 02:24:20;;;;;;;21.70;8.83;;;;;;;2.62;100.00;97530.22;5066281;28;20220;-76
2021/01/05 02:26:52;;;;;;;18.20;8.50;;;;;;;2.65;100.00;97535.13;5064681;28;20199;-75
2021/01/05 02:29:28;;;;;;;19.00;8.07;;;;;;;2.82;100.00;97525.44;5071271;28;20665;-78
2021/01/05 02:32:06;;;;;;;16.67;7.30;;;;;;;2.80;100.00;97522.16;5070495;28;20224;-75
2021/01/05 02:35:00;;;;;;;20.33;8.37;;;;;;;2.64;100.00;97516.88;5071292;28;20315;-75
2021/01/05 02:37:40;;;;;;;18.10;7.67;;;;;;;2.97;100.00;97521.16;5053610;28;20193;-77
2021/01/05 02:40:32;;;;;;;18.03;7.80;;;;;;;2.73;100.00;97521.97;5063488;28;20219;-77
2021/01/05 02:43:09;;;;;;;19.17;7.83;;;;;;;2.82;100.00;97515.72;5071067;28;20208;-76
2021/01/05 02:45:37;;;;;;;18.80;8.07;;;;;;;2.55;100.00;97518.66;5067586;28;20201;-75
2021/01/05 02:48:23;;;;;;;20.97;8.87;;;;;;;2.45;100.00;97531.16;5070439;28;20339;-76
2021/01/05 02:51:24;;;;;;;19.10;9.03;;;;;;;2.63;100.00;97523.94;5071609;28;20608;-76
2021/01/05 02:54:18;;;;;;;17.93;8.23;;;;;;;2.72;100.00;97517.72;5069052;28;20229;-76
2021/01/05 02:57:11;;;;;;;18.83;9.50;;;;;;;2.83;100.00;97509.47;5062546;28;20209;-77
2021/01/05 03:00:13;;;;;;;21.97;9.33;;;;;;;2.71;100.00;97509.97;5071284;28;20205;-77
2021/01/05 03:03:01;;;;;;;22.53;8.40;;;;;;;2.83;100.00;97495.47;5070237;28;20213;-76
2021/01/05 03:05:28;;;;;;;20.03;8.07;;;;;;;2.83;100.00;97501.56;5064945;28;20696;-77
2021/01/05 03:07:55;;;;;;;18.50;8.60;;;;;;;2.85;100.00;97509.31;5069687;28;20204;-79
2021/01/05 03:10:48;;;;;;;21.07;9.37;;;;;;;2.71;100.00;97508.16;5070679;28;20206;-78
2021/01/05 03:13:44;;;;;;;19.23;8.70;;;;;;;2.81;100.00;97508.00;5064239;28;20219;-76
2021/01/05 03:16:18;;;;;;;21.07;8.90;;;;;;;2.78;100.00;97500.41;5071456;28;20190;-78
2021/01/05 03:18:50;;;;;;;22.53;8.90;;;;;;;2.91;100.00;97506.84;5073284;28;20327;-78
2021/01/05 03:21:21;;;;;;;22.17;9.30;;;;;;;2.95;100.00;97512.59;5074900;28;20212;-77
2021/01/05 03:23:50;;;;;;;25.83;9.47;;;;;;;2.80;100.00;97506.34;5074638;28;20217;-78
2021/01/05 03:26:19;;;;;;;20.53;8.90;;;;;;;2.85;100.00;97510.13;5074214;28;20213;-75
2021/01/05 03:28:46;;;;;;;21.40;9.50;;;;;;;2.58;100.00;97515.72;5074433;28;20201;-76
2021/01/05 03:31:18;;;;;;;26.73;9.60;;;;;;;2.92;100.00;97516.41;5074185;28;20653;-75
2021/01/05 03:33:46;;;;;;;22.13;9.73;;;;;;;2.97;100.00;97511.44;5074266;28;20225;-76
2021/01/05 03:36:13;;;;;;;24.03;10.30;;;;;;;2.99;100.00;97511.25;5074946;28;20235;-78
2021/01/05 03:38:40;;;;;;;26.50;10.53;;;;;;;2.61;100.00;97518.03;5074252;28;20205;-78
2021/01/05 03:41:07;;;;;;;20.70;9.93;;;;;;;2.80;100.00;97509.00;5074274;28;20204;-77
2021/01/05 03:43:33;;;;;;;25.93;10.83;;;;;;;2.88;100.00;97512.44;5074382;28;20225;-77
2021/01/05 03:46:00;;;;;;;21.93;10.03;;;;;;;2.96;100.00;97512.41;5074402;28;20212;-78
2021/01/05 03:48:28;;;;;;;23.47;10.07;;;;;;;2.70;100.00;97510.97;5073935;28;20202;-77
2021/01/05 03:50:55;;;;;;;25.90;10.03;;;;;;;2.88;100.00;97506.34;5070694;28;20210;-76
2021/01/05 03:53:21;;;;;;;18.73;8.87;;;;;;;2.85;100.00;97512.75;5073196;28;20220;-76
2021/01/05 03:55:48;;;;;;;24.40;9.23;;;;;;;2.82;100.00;97505.19;5074083;28;20209;-76
2021/01/05 03:58:15;;;;;;;21.13;10.17;;;;;;;2.90;100.00;97504.38;5073961;28;20197;-76
2021/01/05 04:00:42;;;;;;;22.07;10.10;;;;;;;2.66;100.00;97515.72;5066507;28;20549;-76
2021/01/05 04:03:08;;;;;;;24.17;10.00;;;;;;;2.57;100.00;97514.06;5067763;28;20189;-77
2021/01/05 04:05:36;;;;;;;24.57;10.03;;;;;;;2.58;100.00;97514.88;5073797;28;20665;-77
2021/01/05 04:08:03;;;;;;;24.00;10.17;;;;;;;2.45;100.00;97527.72;5073454;28;20204;-77
2021/01/05 04:10:30;;;;;;;26.00;9.53;;;;;;;2.70;100.00;97513.59;5067354;28;20284;-76
2021/01/05 04:12:57;;;;;;;24.57;10.23;;;;;;;2.79;100.00;97507.34;5072712;28;20593;-77
2021/01/05 04:15:26;;;;;;;23.63;9.37;;;;;;;2.81;100.00;97514.09;5073643;28;20220;-76
2021/01/05 04:17:54;;;;;;;19.77;8.97;;;;;;;2.83;100.00;97516.53;5073960;28;20205;-76
2021/01/05 04:20:22;;;;;;;23.83;9.77;;;;;;;2.90;100.00;97514.91;5073465;28;20204;-79
2021/01/05 04:22:49;;;;;;;26.10;10.73;;;;;;;2.88;100.00;97514.22;5070831;28;20262;-78
2021/01/05 04:25:18;;;;;;;21.00;9.57;;;;;;;2.73;100.00;97511.44;5073477;28;20219;-77
2021/01/05 04:27:46;;;;;;;21.57;10.30;;;;;;;2.85;100.00;97507.47;5082142;28;20254;-77
2021/01/05 04:30:19;;;;;;;23.30;9.57;;;;;;;2.97;100.00;97502.72;5072932;28;20193;-77
2021/01/05 04:32:46;;;;;;;25.60;10.53;;;;;;;2.82;100.00;97507.00;5073167;28;20220;-77
2021/01/05 04:35:13;;;;;;;24.43;10.00;;;;;;;3.00;100.00;97503.19;5073219;28;20286;-75
2021/01/05 04:37:40;;;;;;;24.33;10.67;;;;;;;3.07;100.00;97498.09;5072700;28;20296;-77
2021/01/05 04:40:10;;;;;;;21.53;10.37;;;;;;;2.84;100.00;97497.13;5065092;28;20238;-76
2021/01/05 04:42:39;;;;;;;26.17;10.87;;;;;;;2.74;100.00;97509.66;5073384;28;20185;-76
2021/01/05 04:45:09;;;;;;;20.47;9.20;;;;;;;2.97;100.00;97507.97;5064264;28;20221;-76
2021/01/05 04:47:42;;;;;;;21.43;10.13;;;;;;;2.98;100.00;97509.63;5066698;28;20203;-77
2021/01/05 04:50:14;;;;;;;22.60;10.57;;;;;;;3.07;100.00;97516.53;5065122;28;20563;-76
2021/01/05 04:52:47;;;;;;;22.80;10.20;;;;;;;2.92;100.00;97516.41;5072941;28;20673;-76
2021/01/05 04:55:41;;;;;;;23.93;10.47;;;;;;;2.96;100.00;97528.22;5064782;28;20584;-76
2021/01/05 04:58:12;;;;;;;25.97;11.17;;;;;;;2.93;100.00;97533.84;5073118;28;20201;-77
2021/01/05 05:00:41;;;;;;;22.83;11.00;;;;;;;3.00;100.00;97523.47;5066535;28;20198;-78
2021/01/05 05:03:17;;;;;;;24.00;10.77;;;;;;;2.89;100.00;97521.97;5069932;28;20193;-76
2021/01/05 05:06:14;;;;;;;18.80;9.37;;;;;;;3.09;100.00;97533.00;5072838;28;20196;-76
2021/01/05 05:09:03;;;;;;;24.40;10.93;;;;;;;2.95;100.00;97528.41;5069924;28;20208;-76
2021/01/05 05:11:36;;;;;;;22.03;9.67;;;;;;;3.07;100.00;97530.56;5066311;28;20227;-76
2021/01/05 05:14:06;;;;;;;23.97;10.50;;;;;;;2.92;100.00;97528.72;5072591;28;20227;-76
2021/01/05 05:16:57;;;;;;;21.40;9.70;;;;;;;3.15;100.00;97527.88;5072302;28;20201;-78
2021/01/05 05:19:44;;;;;;;20.83;10.23;;;;;;;3.08;100.00;97526.09;5069473;28;20201;-76
2021/01/05 05:22:15;;;;;;;21.77;10.03;;;;;;;3.07;100.00;97527.09;5072325;28;20193;-79
2021/01/05 05:24:50;;;;;;;20.63;10.03;;;;;;;3.10;100.00;97532.03;5070812;28;20294;-79
2021/01/05 05:27:23;;;;;;;22.77;10.80;;;;;;;3.01;100.00;97538.28;5069569;28;20208;-76
2021/01/05 05:29:53;;;;;;;22.03;10.37;;;;;;;2.98;100.00;97528.06;5067995;28;20206;-78
2021/01/05 05:32:29;;;;;;;25.00;11.30;;;;;;;2.96;100.00;97532.69;5072151;28;20299;-76
2021/01/05 05:35:20;;;;;;;23.43;10.00;;;;;;;3.03;100.00;97534.50;5066939;28;20634;-76
2021/01/05 05:37:56;;;;;;;20.90;10.30;;;;;;;2.73;100.00;97543.06;5064468;28;20202;-75
2021/01/05 05:40:41;;;;;;;23.03;9.93;;;;;;;2.88;100.00;97541.41;5071230;28;20675;-75
2021/01/05 05:43:54;;;;;;;24.83;10.07;;;;;;;2.98;100.00;97544.72;5063631;28;20196;-76
2021/01/05 05:46:24;;;;;;;20.77;9.93;;;;;;;3.03;100.00;97539.78;5009933;28;20207;-76
2021/01/05 05:48:58;;;;;;;22.77;10.53;;;;;;;3.11;100.00;97552.94;5052991;28;20206;-77
2021/01/05 05:51:29;;;;;;;26.30;10.73;;;;;;;3.11;100.00;97549.50;5071500;28;20725;-76
2021/01/05 05:54:00;;;;;;;20.30;10.37;;;;;;;3.21;100.00;97556.22;5070958;28;20232;-76
2021/01/05 05:56:40;;;;;;;23.30;10.07;;;;;;;3.06;100.00;97557.06;5067986;28;20285;-76
2021/01/05 05:59:08;;;;;;;24.33;10.80;;;;;;;3.15;100.00;97559.53;5072184;28;20197;-76
2021/01/05 06:01:38;;;;;;;24.53;10.60;;;;;;;3.05;100.00;97563.34;5071557;28;20201;-76
2021/01/05 06:04:07;;;;;;;21.03;10.40;;;;;;;3.08;100.00;97569.09;5072173;28;20228;-75
2021/01/05 06:06:34;;;;;;;25.40;10.93;;;;;;;3.16;100.00;97561.16;5072060;28;20556;-76
2021/01/05 06:09:01;;;;;;;23.83;11.07;;;;;;;2.97;100.00;97573.88;5071262;28;20254;-76
2021/01/05 06:11:28;;;;;;;24.53;11.17;;;;;;;3.00;100.00;97574.34;5071501;28;20617;-77
2021/01/05 06:13:55;;;;;;;23.40;10.40;;;;;;;2.97;100.00;97572.06;5071783;28;20225;-78
2021/01/05 06:16:22;;;;;;;24.17;10.90;;;;;;;3.22;100.00;97583.41;5065304;28;20202;-76
2021/01/05 06:18:49;;;;;;;28.40;11.73;;;;;;;2.99;100.00;97582.41;5071781;28;20202;-76
2021/01/05 06:21:18;;;;;;;23.03;10.77;;;;;;;3.06;100.00;97589.50;5071390;28;20205;-76
2021/01/05 06:23:45;;;;;;;22.23;9.90;;;;;;;3.05;100.00;97592.31;5071283;28;20221;-75
2021/01/05 06:26:12;;;;;;;27.37;11.27;;;;;;;3.07;100.00;97588.53;5071834;28;21088;-76
2021/01/05 06:28:38;;;;;;;22.30;10.87;;;;;;;3.25;100.00;97586.53;5071802;28;20280;-76
2021/01/05 06:31:06;;;;;;;22.83;10.60;;;;;;;3.20;100.00;97588.03;5071656;28;20208;-76
2021/01/05 06:33:34;;;;;;;25.30;10.60;;;;;;;3.20;100.00;97588.03;5071784;28;20221;-77
2021/01/05 06:36:00;;;;;;;25.77;11.10;;;;;;;3.10;100.00;97590.03;5071447;28;20204;-76
2021/01/05 06:38:27;;;;;;;26.73;11.20;;;;;;;3.12;100.00;97593.31;5071519;28;20189;-77
2021/01/05 06:40:54;;;;;;;22.80;10.90;;;;;;;3.20;100.00;97590.69;5071268;28;20201;-76
2021/01/05 06:43:21;;;;;;;24.33;10.27;;;;;;;3.04;100.00;97594.13;5071623;28;20225;-75
2021/01/05 06:45:47;;;;;;;24.23;11.63;;;;;;;3.27;100.00;97596.94;5076358;28;20193;-77
2021/01/05 06:48:15;;;;;;;24.97;10.67;;;;;;;3.14;100.00;97599.22;5070686;28;20204;-77
2021/01/05 06:50:42;;;;;;;22.93;10.23;;;;;;;3.20;100.00;97588.03;5068040;28;20259;-76
2021/01/05 06:53:09;;;;;;;30.87;11.67;;;;;;;2.80;100.00;97601.19;5065005;28;20701;-76
2021/01/05 06:55:36;;;;;;;22.77;10.07;;;;;;;3.16;100.00;97595.44;5068730;28;20205;-77
2021/01/05 06:58:03;;;;;;;21.03;10.77;;;;;;;3.11;100.00;97596.94;5075817;28;20201;-77
2021/01/05 07:00:31;;;;;;;24.80;11.83;;;;;;;3.02;100.00;97596.13;5073585;28;20205;-77
2021/01/05 07:02:58;;;;;;;24.23;10.77;;;;;;;3.22;100.00;97601.88;5075003;28;20627;-76
2021/01/05 07:05:25;;;;;;;22.93;10.97;;;;;;;3.18;100.00;97592.63;5074424;28;20759;-78
2021/01/05 07:07:53;;;;;;;28.43;12.07;;;;;;;3.15;100.00;97601.69;5074991;28;20208;-77
2021/01/05 07:10:21;;;;;;;21.93;10.80;;;;;;;3.17;100.00;97605.03;5067872;28;20220;-77
2021/01/05 07:12:49;;;;;;;22.93;11.70;;;;;;;3.08;100.00;97600.72;5074343;28;20209;-78
2021/01/05 07:15:17;;;;;;;25.13;10.80;;;;;;;3.31;100.00;97591.16;5075054;28;20270;-77
2021/01/05 07:17:43;;;;;;;25.47;11.17;;;;;;;3.11;100.00;97591.66;5070282;28;20914;-77
2021/01/05 07:20:11;;;;;;;23.60;10.80;;;;;;;3.11;100.00;97596.94;5074853;28;20197;-77
2021/01/05 07:22:38;;;;;;;22.23;10.57;;;;;;;3.06;100.00;97601.88;5073305;28;20665;-77
2021/01/05 07:25:10;;;;;;;24.80;10.43;;;;;;;2.89;100.00;97605.50;5064463;28;20220;-77
2021/01/05 07:27:37;;;;;;;27.07;10.43;;;;;;;3.09;100.00;97594.47;5073437;28;20197;-76
2021/01/05 07:30:04;;;;;;;25.80;11.90;;;;;;;3.21;100.00;97600.22;5064301;28;20670;-78
2021/01/05 07:32:31;;;;;;;24.63;11.00;;;;;;;3.12;100.00;97601.22;5073845;28;20568;-78
2021/01/05 07:34:58;;;;;;;23.80;11.00;;;;;;;3.25;100.00;97605.00;5074632;28;20233;-78
2021/01/05 07:37:28;;;;;;;22.90;11.20;;;;;;;3.10;100.00;97614.56;5069771;28;20201;-77
2021/01/05 07:39:55;;;;;;;25.17;11.23;;;;;;;2.99;100.00;97606.13;5074495;28;20654;-76
2021/01/05 07:42:25;;;;;;;22.17;10.30;;;;;;;3.18;100.00;97614.56;5074386;28;20201;-77
2021/01/05 07:44:53;;;;;;;24.17;11.97;;;;;;;3.18;100.00;97616.38;5074109;28;20299;-77
2021/01/05 07:47:22;;;;;;;20.53;9.87;;;;;;;3.22;100.00;97618.53;5074324;28;20193;-76
2021/01/05 07:49:49;;;;;;;22.73;10.20;;;;;;;3.19;100.00;97613.56;5075020;28;20199;-78
2021/01/05 07:52:21;;;;;;;19.13;9.57;;;;;;;3.06;100.00;97618.50;5067696;28;20184;-77
2021/01/05 07:54:48;;;;;;;28.70;12.57;;;;;;;3.18;100.00;97621.63;5073948;28;20637;-77
2021/01/05 07:57:15;;;;;;;22.77;10.33;;;;;;;3.33;100.00;97620.84;5073230;28;20314;-77
2021/01/05 07:59:43;;;;;;;21.73;9.97;;;;;;;3.04;100.00;97620.47;5074508;28;20251;-76
2021/01/05 08:02:10;;;;;;;25.83;11.33;;;;;;;2.88;100.00;97625.75;5075375;28;20293;-77
2021/01/05 08:04:39;;;;;;;21.83;10.10;;;;;;;3.06;100.00;97628.22;5068052;28;20610;-77
2021/01/05 08:07:07;;;;;;;19.70;9.07;;;;;;;3.11;100.00;97615.38;5076263;28;20556;-75
2021/01/05 08:09:34;;;;;;;22.73;9.77;;;;;;;3.11;100.00;97625.94;5075319;28;20205;-77
2021/01/05 08:12:00;;;;;;;24.23;9.60;;;;;;;3.09;100.00;97627.88;5074036;28;20296;-82
2021/01/05 08:14:28;;;;;;;20.60;9.13;;;;;;;3.21;100.00;97619.50;5071993;28;20299;-80
2021/01/05 08:16:55;;;;;;;22.47;10.97;;;;;;;3.04;100.00;97623.13;5075605;28;20201;-84
2021/01/05 08:19:22;;;;;;;23.73;10.17;;;;;;;2.92;100.00;97628.88;5078625;28;20768;-79
2021/01/05 08:21:49;;;;;;;22.33;10.88;;;;;;;3.13;100.00;97626.56;5076553;28;20448;-80
2021/01/05 08:24:19;;;;;;;20.63;10.07;;;;;;;3.15;100.00;97620.16;5074705;28;20295;-81
2021/01/05 08:26:46;;;;;;;21.63;9.70;;;;;;;3.04;100.00;97624.91;5063366;28;20279;-77
2021/01/05 08:29:12;;;;;;;24.10;10.07;;;;;;;3.22;100.00;97625.59;5075707;28;20294;-76
2021/01/05 08:31:42;;;;;;;18.73;9.27;;;;;;;3.28;100.00;97620.50;5074401;28;20673;-79
2021/01/05 08:34:10;;;;;;;17.33;8.87;;;;;;;3.35;100.00;97613.56;5077106;28;20234;-80
2021/01/05 08:36:37;;;;;;;20.90;9.83;;;;;;;3.16;100.00;97619.16;5074661;28;20198;-77
2021/01/05 08:39:05;;;;;;;20.00;9.00;;;;;;;3.46;100.00;97612.41;5077258;28;20199;-78
2021/01/05 08:41:32;;;;;;;19.00;9.00;;;;;;;3.19;100.00;97618.84;5070431;28;20205;-79
2021/01/05 08:43:58;;;;;;;20.07;9.47;;;;;;;3.14;100.00;97620.31;5076279;28;20239;-79
2021/01/05 08:46:27;;;;;;;18.30;8.17;;;;;;;3.28;100.00;97617.88;5080638;28;20203;-78
2021/01/05 08:48:54;;;;;;;20.67;8.87;;;;;;;3.23;100.00;97617.53;5075825;28;20335;-79
2021/01/05 08:51:23;;;;;;;16.93;8.57;;;;;;;3.30;100.00;97607.97;5084303;28;20198;-78
2021/01/05 08:53:50;;;;;;;16.83;8.87;;;;;;;3.22;100.00;97615.06;5085462;28;20326;-77
2021/01/05 08:56:18;;;;;;;18.50;9.40;;;;;;;3.32;100.00;97608.63;5070476;28;20205;-76
2021/01/05 08:58:45;;;;;;;19.03;8.90;;;;;;;3.32;100.00;97607.81;5069067;28;20223;-76
2021/01/05 09:01:12;;;;;;;17.60;8.20;;;;;;;3.44;100.00;97615.22;5074529;28;20288;-81
2021/01/05 09:03:39;;;;;;;18.07;8.03;;;;;;;3.41;100.00;97609.44;5076190;28;20218;-76
2021/01/05 09:06:06;;;;;;;17.10;9.03;;;;;;;3.47;100.00;97608.78;5073296;28;20558;-82
2021/01/05 09:08:34;;;;;;;14.30;7.73;;;;;;;3.58;100.00;97613.72;5073288;28;20602;-76
2021/01/05 09:11:02;;;;;;;17.07;7.87;;;;;;;3.62;100.00;97615.03;5071875;28;20529;-75
2021/01/05 09:13:29;;;;;;;18.27;8.20;;;;;;;3.45;100.00;97611.59;5068889;28;20225;-77
2021/01/05 09:15:56;;;;;;;17.47;9.17;;;;;;;3.35;100.00;97612.75;5070092;28;20206;-86
2021/01/05 09:18:23;;;;;;;17.50;9.03;;;;;;;3.54;100.00;97607.94;5075202;28;20253;-84
2021/01/05 09:20:51;;;;;;;18.60;8.20;;;;;;;3.15;100.00;97620.16;5074416;28;20677;-86
2021/01/05 09:23:21;;;;;;;17.93;9.30;;;;;;;3.24;100.00;97615.69;5067228;28;20189;-81
2021/01/05 09:25:50;;;;;;;19.77;9.00;;;;;;;3.56;100.00;97623.63;5069332;28;20206;-78
2021/01/05 09:28:17;;;;;;;17.37;8.67;;;;;;;3.70;100.00;97618.47;5070049;28;20210;-77
2021/01/05 09:30:46;;;;;;;18.53;9.40;;;;;;;3.62;100.00;97621.16;5062723;28;20218;-77
2021/01/05 09:33:13;;;;;;;15.07;8.33;;;;;;;3.75;100.00;97625.88;5070028;28;20225;-78
2021/01/05 09:35:40;;;;;;;16.50;9.20;;;;;;;3.47;100.00;97622.81;5072806;28;20200;-77
2021/01/05 09:38:08;;;;;;;17.23;8.77;;;;;;;3.63;100.00;97619.31;5069730;28;20224;-74
2021/01/05 09:40:36;;;;;;;18.00;8.60;;;;;;;3.74;100.00;97626.88;5067456;28;20719;-75
2021/01/05 09:43:05;;;;;;;18.47;9.47;;;;;;;3.54;100.00;97621.13;5067296;28;20197;-74
2021/01/05 09:45:32;;;;;;;18.83;9.37;;;;;;;3.34;100.00;97625.09;5068099;28;20717;-74
2021/01/05 09:48:06;;;;;;;19.77;9.47;;;;;;;3.42;100.00;97625.13;5071310;28;20301;-75
2021/01/05 09:50:33;;;;;;;18.47;9.00;;;;;;;3.74;100.00;97630.34;5065898;28;20625;-76
2021/01/05 09:52:59;;;;;;;18.40;8.53;;;;;;;3.41;100.00;97620.81;5067858;28;20251;-77
2021/01/05 09:55:26;;;;;;;19.63;9.00;;;;;;;3.62;100.00;97630.84;5067067;28;20585;-74
2021/01/05 09:57:53;;;;;;;17.77;8.80;;;;;;;3.33;100.00;97630.53;5068517;28;20218;-76
2021/01/05 10:00:22;;;;;;;19.97;10.07;;;;;;;3.72;100.00;97629.66;5068449;28;20201;-77
2021/01/05 10:02:49;;;;;;;19.83;9.73;;;;;;;3.41;100.00;97633.19;5069468;28;20266;-74
2021/01/05 10:05:16;;;;;;;20.17;9.30;;;;;;;3.73;100.00;97633.97;5065639;28;20217;-74
2021/01/05 10:07:43;;;;;;;19.67;8.70;;;;;;;3.77;100.00;97627.34;5067188;28;20728;-77
2021/01/05 10:10:15;;;;;;;19.03;9.67;;;;;;;3.83;100.00;97626.72;5066269;28;20205;-75
2021/01/05 10:12:42;;;;;;;19.13;9.43;;;;;;;3.75;100.00;97621.44;5067427;28;20206;-73
2021/01/05 10:15:10;;;;;;;18.27;9.17;;;;;;;3.52;100.00;97631.03;5065550;28;20233;-74
2021/01/05 10:17:38;;;;;;;19.33;9.10;;;;;;;3.75;100.00;97613.50;5066221;28;20210;-73
2021/01/05 10:20:07;;;;;;;17.37;9.07;;;;;;;3.81;100.00;97619.94;5069292;28;20202;-73
2021/01/05 10:22:34;;;;;;;18.17;9.27;;;;;;;3.79;100.00;97614.84;5059702;28;20198;-74
2021/01/05 10:25:00;;;;;;;19.30;9.60;;;;;;;3.78;100.00;97615.84;5067107;28;20228;-75
2021/01/05 10:27:27;;;;;;;21.07;9.57;;;;;;;3.90;100.00;97614.47;5070487;28;20205;-75
2021/01/05 10:29:55;;;;;;;23.33;10.10;;;;;;;3.56;100.00;97620.97;5071728;28;20620;-74
2021/01/05 10:32:22;;;;;;;19.43;9.93;;;;;;;3.62;100.00;97620.31;5073939;28;20202;-75
2021/01/05 10:34:50;;;;;;;21.07;10.10;;;;;;;3.80;100.00;97603.28;5070761;28;20241;-73
2021/01/05 10:37:17;;;;;;;22.30;9.77;;;;;;;3.92;100.00;97593.19;5066653;28;20208;-75
2021/01/05 10:39:44;;;;;;;22.27;10.03;;;;;;;3.93;100.00;97600.13;5066792;28;20213;-73
2021/01/05 10:42:10;;;;;;;20.20;9.20;;;;;;;4.01;100.00;97602.75;5067069;28;20207;-74
2021/01/05 10:44:37;;;;;;;19.90;9.57;;;;;;;4.07;100.00;97594.94;5070977;28;20221;-74
2021/01/05 10:47:05;;;;;;;19.03;9.43;;;;;;;4.01;100.00;97593.00;5073622;28;20216;-73
2021/01/05 10:49:32;;;;;;;20.27;10.23;;;;;;;4.00;100.00;97590.50;5071415;28;20199;-76
2021/01/05 10:52:02;;;;;;;19.50;9.47;;;;;;;4.22;100.00;97587.94;5074194;28;20210;-76
2021/01/05 10:54:29;;;;;;;18.40;8.90;;;;;;;4.02;100.00;97592.00;5068717;28;20233;-78
2021/01/05 10:56:57;;;;;;;20.23;9.80;;;;;;;4.30;100.00;97590.56;5070979;28;20256;-76
2021/01/05 10:59:24;;;;;;;19.63;9.90;;;;;;;4.41;100.00;97584.91;5071728;28;20261;-74
2021/01/05 11:01:51;;;;;;;18.73;9.23;;;;;;;4.31;100.00;97594.03;5070192;28;20198;-77
2021/01/05 11:04:18;;;;;;;21.73;9.57;;;;;;;4.02;100.00;97584.06;5070667;28;20241;-73
2021/01/05 11:06:55;;;;;;;21.53;10.13;;;;;;;3.99;100.00;97584.44;5072910;28;20201;-78
2021/01/05 11:09:24;;;;;;;21.20;9.80;;;;;;;4.30;100.00;97577.38;5072610;28;20205;-75
2021/01/05 11:11:56;;;;;;;19.57;9.53;;;;;;;4.32;100.00;97569.28;5064574;28;20203;-75
2021/01/05 11:14:23;;;;;;;19.77;9.73;;;;;;;4.18;100.00;97565.56;5072756;28;20229;-77
2021/01/05 11:16:50;;;;;;;19.23;9.47;;;;;;;4.27;100.00;97577.69;5067918;28;20203;-73
2021/01/05 11:19:18;;;;;;;19.43;9.30;;;;;;;3.96;100.00;97574.19;5070662;28;20208;-81
2021/01/05 11:21:50;;;;;;;20.13;9.67;;;;;;;4.21;100.00;97578.38;5075038;28;20580;-79
2021/01/05 11:24:17;;;;;;;20.73;9.37;;;;;;;4.30;100.00;97573.88;5070965;28;20214;-79
2021/01/05 11:26:45;;;;;;;20.07;8.77;;;;;;;4.32;100.00;97566.63;5072188;28;20226;-78
2021/01/05 11:29:12;;;;;;;16.13;8.40;;;;;;;4.25;100.00;97566.50;5073118;28;20251;-79
2021/01/05 11:31:38;;;;;;;19.43;9.03;;;;;;;4.23;100.00;97570.31;5075767;28;20226;-80
2021/01/05 11:34:06;;;;;;;19.77;9.80;;;;;;;3.61;100.00;97573.81;5073335;28;20229;-82
2021/01/05 11:36:33;;;;;;;17.47;9.43;;;;;;;3.96;100.00;97568.91;5074839;28;20257;-78